sensor_id;sensor_type;location;lat;lon;timestamp;P1;durP1;ratioP1;P2;durP2;ratioP2
5273;SDS011;56254;50.956;7.010;2023-01-31T00:01:38;37.23;;;4.33;;
5273;SDS011;56254;50.956;7.010;2023-01-31T00:04:11;19.43;;;3.87;;
5273;SDS011;56254;50.956;7.010;2023-01-31T00:06:39;27.07;;;5.00;;
5273;SDS011;56254;50.956;7.010;2023-01-31T00:09:06;22.73;;;5.40;;
5273;SDS011;56254;50.956;7.010;2023-01-31T00:11:34;29.60;;;4.37;;
5273;SDS011;56254;50.956;7.010;2023-01-31T00:14:01;17.60;;;3.67;;
5273;SDS011;56254;50.956;7.010;2023-01-31T00:16:30;26.87;;;4.97;;
5273;SDS011;56254;50.956;7.010;2023-01-31T00:18:56;35.90;;;4.43;;
5273;SDS011;56254;50.956;7.010;2023-01-31T00:21:22;30.47;;;5.40;;
5273;SDS011;56254;50.956;7.010;2023-01-31T00:23:53;22.57;;;4.70;;
5273;SDS011;56254;50.956;7.010;2023-01-31T00:26:30;18.23;;;4.37;;
5273;SDS011;56254;50.956;7.010;2023-01-31T00:28:57;15.73;;;3.30;;
5273;SDS011;56254;50.956;7.010;2023-01-31T00:31:29;27.30;;;4.70;;
5273;SDS011;56254;50.956;7.010;2023-01-31T00:34:00;27.43;;;4.90;;
5273;SDS011;56254;50.956;7.010;2023-01-31T00:36:27;21.50;;;3.67;;
5273;SDS011;56254;50.956;7.010;2023-01-31T00:38:59;43.67;;;4.30;;
5273;SDS011;56254;50.956;7.010;2023-01-31T00:41:28;27.77;;;4.53;;
5273;SDS011;56254;50.956;7.010;2023-01-31T00:43:54;40.20;;;4.60;;
5273;SDS011;56254;50.956;7.010;2023-01-31T00:46:21;35.30;;;3.83;;
5273;SDS011;56254;50.956;7.010;2023-01-31T00:48:47;26.50;;;5.87;;
5273;SDS011;56254;50.956;7.010;2023-01-31T00:51:14;17.73;;;2.20;;
5273;SDS011;56254;50.956;7.010;2023-01-31T00:53:49;24.63;;;3.63;;
5273;SDS011;56254;50.956;7.010;2023-01-31T00:56:16;49.80;;;6.77;;
5273;SDS011;56254;50.956;7.010;2023-01-31T00:58:43;17.77;;;4.30;;
5273;SDS011;56254;50.956;7.010;2023-01-31T01:03:55;38.17;;;4.07;;
5273;SDS011;56254;50.956;7.010;2023-01-31T01:06:39;50.03;;;4.20;;
5273;SDS011;56254;50.956;7.010;2023-01-31T01:09:05;15.57;;;3.27;;
5273;SDS011;56254;50.956;7.010;2023-01-31T01:27:54;36.30;;;4.47;;
5273;SDS011;56254;50.956;7.010;2023-01-31T01:30:20;34.23;;;4.60;;
5273;SDS011;56254;50.956;7.010;2023-01-31T01:32:53;48.30;;;4.40;;
5273;SDS011;56254;50.956;7.010;2023-01-31T01:35:20;41.90;;;5.00;;
5273;SDS011;56254;50.956;7.010;2023-01-31T01:37:46;32.63;;;3.10;;
5273;SDS011;56254;50.956;7.010;2023-01-31T01:40:11;12.23;;;3.47;;
5273;SDS011;56254;50.956;7.010;2023-01-31T01:42:37;36.70;;;4.27;;
5273;SDS011;56254;50.956;7.010;2023-01-31T01:45:03;27.40;;;4.47;;
5273;SDS011;56254;50.956;7.010;2023-01-31T01:47:48;22.77;;;3.43;;
5273;SDS011;56254;50.956;7.010;2023-01-31T01:50:30;33.73;;;4.27;;
5273;SDS011;56254;50.956;7.010;2023-01-31T01:53:02;25.30;;;3.50;;
5273;SDS011;56254;50.956;7.010;2023-01-31T01:58:08;28.60;;;3.77;;
5273;SDS011;56254;50.956;7.010;2023-01-31T02:00:46;27.53;;;4.17;;
5273;SDS011;56254;50.956;7.010;2023-01-31T02:03:14;34.60;;;4.13;;
5273;SDS011;56254;50.956;7.010;2023-01-31T02:08:31;31.17;;;4.10;;
5273;SDS011;56254;50.956;7.010;2023-01-31T02:11:07;29.60;;;5.67;;
5273;SDS011;56254;50.956;7.010;2023-01-31T02:13:39;44.43;;;3.77;;
5273;SDS011;56254;50.956;7.010;2023-01-31T02:16:06;33.40;;;4.97;;
5273;SDS011;56254;50.956;7.010;2023-01-31T02:18:36;31.97;;;3.67;;
5273;SDS011;56254;50.956;7.010;2023-01-31T02:40:59;16.10;;;3.10;;
5273;SDS011;56254;50.956;7.010;2023-01-31T02:49:26;44.37;;;8.13;;
5273;SDS011;56254;50.956;7.010;2023-01-31T02:54:42;35.63;;;4.40;;
5273;SDS011;56254;50.956;7.010;2023-01-31T02:57:31;22.83;;;4.57;;
5273;SDS011;56254;50.956;7.010;2023-01-31T03:00:15;18.10;;;4.93;;
5273;SDS011;56254;50.956;7.010;2023-01-31T03:02:42;23.90;;;3.50;;
5273;SDS011;56254;50.956;7.010;2023-01-31T03:05:11;18.17;;;3.97;;
5273;SDS011;56254;50.956;7.010;2023-01-31T03:07:39;41.27;;;4.20;;
5273;SDS011;56254;50.956;7.010;2023-01-31T03:19:29;32.63;;;3.37;;
5273;SDS011;56254;50.956;7.010;2023-01-31T03:25:31;22.43;;;5.30;;
5273;SDS011;56254;50.956;7.010;2023-01-31T03:28:00;29.03;;;4.07;;
5273;SDS011;56254;50.956;7.010;2023-01-31T03:33:26;26.53;;;4.93;;
5273;SDS011;56254;50.956;7.010;2023-01-31T03:35:58;22.83;;;4.10;;
5273;SDS011;56254;50.956;7.010;2023-01-31T03:38:33;22.00;;;5.10;;
5273;SDS011;56254;50.956;7.010;2023-01-31T03:44:12;23.13;;;4.40;;
5273;SDS011;56254;50.956;7.010;2023-01-31T03:46:54;27.70;;;4.80;;
5273;SDS011;56254;50.956;7.010;2023-01-31T03:50:52;32.53;;;4.80;;
5273;SDS011;56254;50.956;7.010;2023-01-31T03:56:17;22.43;;;4.63;;
5273;SDS011;56254;50.956;7.010;2023-01-31T03:58:50;23.97;;;4.70;;
5273;SDS011;56254;50.956;7.010;2023-01-31T04:01:47;30.40;;;5.00;;
5273;SDS011;56254;50.956;7.010;2023-01-31T04:04:19;30.40;;;5.63;;
5273;SDS011;56254;50.956;7.010;2023-01-31T04:06:49;25.87;;;5.50;;
5273;SDS011;56254;50.956;7.010;2023-01-31T04:09:21;29.33;;;5.73;;
5273;SDS011;56254;50.956;7.010;2023-01-31T04:11:49;29.20;;;5.30;;
5273;SDS011;56254;50.956;7.010;2023-01-31T04:14:16;29.80;;;4.80;;
5273;SDS011;56254;50.956;7.010;2023-01-31T04:16:42;31.53;;;4.10;;
5273;SDS011;56254;50.956;7.010;2023-01-31T04:19:08;32.70;;;3.97;;
5273;SDS011;56254;50.956;7.010;2023-01-31T04:21:34;41.47;;;4.80;;
5273;SDS011;56254;50.956;7.010;2023-01-31T04:23:59;21.13;;;5.47;;
5273;SDS011;56254;50.956;7.010;2023-01-31T04:26:25;23.50;;;4.23;;
5273;SDS011;56254;50.956;7.010;2023-01-31T04:28:56;26.00;;;5.00;;
5273;SDS011;56254;50.956;7.010;2023-01-31T04:31:22;22.50;;;4.47;;
5273;SDS011;56254;50.956;7.010;2023-01-31T04:33:48;43.70;;;5.27;;
5273;SDS011;56254;50.956;7.010;2023-01-31T04:36:21;14.57;;;4.40;;
5273;SDS011;56254;50.956;7.010;2023-01-31T04:38:46;16.60;;;3.77;;
5273;SDS011;56254;50.956;7.010;2023-01-31T04:41:12;36.83;;;8.13;;
5273;SDS011;56254;50.956;7.010;2023-01-31T04:43:40;38.20;;;8.47;;
5273;SDS011;56254;50.956;7.010;2023-01-31T04:46:06;36.23;;;6.00;;
5273;SDS011;56254;50.956;7.010;2023-01-31T04:48:32;33.47;;;5.10;;
5273;SDS011;56254;50.956;7.010;2023-01-31T04:50:57;29.10;;;5.63;;
5273;SDS011;56254;50.956;7.010;2023-01-31T04:53:23;35.87;;;5.47;;
5273;SDS011;56254;50.956;7.010;2023-01-31T04:56:06;15.43;;;3.83;;
5273;SDS011;56254;50.956;7.010;2023-01-31T04:58:32;43.47;;;5.07;;
5273;SDS011;56254;50.956;7.010;2023-01-31T05:00:57;19.03;;;4.03;;
5273;SDS011;56254;50.956;7.010;2023-01-31T05:03:24;25.97;;;5.53;;
5273;SDS011;56254;50.956;7.010;2023-01-31T05:05:50;37.93;;;4.40;;
5273;SDS011;56254;50.956;7.010;2023-01-31T05:08:16;30.83;;;5.50;;
5273;SDS011;56254;50.956;7.010;2023-01-31T05:10:44;42.73;;;9.30;;
5273;SDS011;56254;50.956;7.010;2023-01-31T05:13:10;24.43;;;6.00;;
5273;SDS011;56254;50.956;7.010;2023-01-31T05:15:36;25.53;;;5.00;;
5273;SDS011;56254;50.956;7.010;2023-01-31T05:18:03;37.07;;;5.60;;
5273;SDS011;56254;50.956;7.010;2023-01-31T05:20:29;32.00;;;5.20;;
5273;SDS011;56254;50.956;7.010;2023-01-31T05:22:57;30.47;;;6.20;;
5273;SDS011;56254;50.956;7.010;2023-01-31T05:25:24;34.10;;;4.80;;
5273;SDS011;56254;50.956;7.010;2023-01-31T05:27:50;29.50;;;5.10;;
5273;SDS011;56254;50.956;7.010;2023-01-31T05:30:17;28.73;;;6.00;;
5273;SDS011;56254;50.956;7.010;2023-01-31T05:32:43;53.73;;;6.20;;
5273;SDS011;56254;50.956;7.010;2023-01-31T05:35:10;38.50;;;6.90;;
5273;SDS011;56254;50.956;7.010;2023-01-31T05:37:36;27.67;;;6.27;;
5273;SDS011;56254;50.956;7.010;2023-01-31T05:40:16;19.00;;;5.40;;
5273;SDS011;56254;50.956;7.010;2023-01-31T05:42:42;39.47;;;6.53;;
5273;SDS011;56254;50.956;7.010;2023-01-31T05:45:08;36.13;;;6.90;;
5273;SDS011;56254;50.956;7.010;2023-01-31T05:47:35;25.13;;;5.90;;
5273;SDS011;56254;50.956;7.010;2023-01-31T05:50:01;27.27;;;6.23;;
5273;SDS011;56254;50.956;7.010;2023-01-31T05:52:27;20.47;;;6.83;;
5273;SDS011;56254;50.956;7.010;2023-01-31T05:54:53;29.47;;;6.67;;
5273;SDS011;56254;50.956;7.010;2023-01-31T05:57:19;27.03;;;6.33;;
5273;SDS011;56254;50.956;7.010;2023-01-31T05:59:45;37.17;;;6.90;;
5273;SDS011;56254;50.956;7.010;2023-01-31T06:02:11;26.70;;;6.07;;
5273;SDS011;56254;50.956;7.010;2023-01-31T06:04:37;25.27;;;6.67;;
5273;SDS011;56254;50.956;7.010;2023-01-31T06:07:03;29.57;;;6.33;;
5273;SDS011;56254;50.956;7.010;2023-01-31T06:09:29;24.57;;;6.10;;
5273;SDS011;56254;50.956;7.010;2023-01-31T06:11:55;21.13;;;5.80;;
5273;SDS011;56254;50.956;7.010;2023-01-31T06:14:24;18.03;;;5.87;;
5273;SDS011;56254;50.956;7.010;2023-01-31T06:16:50;29.20;;;6.03;;
5273;SDS011;56254;50.956;7.010;2023-01-31T06:19:16;36.07;;;7.20;;
5273;SDS011;56254;50.956;7.010;2023-01-31T06:21:42;29.80;;;7.17;;
5273;SDS011;56254;50.956;7.010;2023-01-31T06:24:08;27.13;;;6.70;;
5273;SDS011;56254;50.956;7.010;2023-01-31T06:26:35;44.23;;;6.90;;
5273;SDS011;56254;50.956;7.010;2023-01-31T06:29:00;34.53;;;6.50;;
5273;SDS011;56254;50.956;7.010;2023-01-31T06:31:26;29.17;;;8.07;;
5273;SDS011;56254;50.956;7.010;2023-01-31T06:33:52;24.43;;;6.33;;
5273;SDS011;56254;50.956;7.010;2023-01-31T06:36:19;30.70;;;8.33;;
5273;SDS011;56254;50.956;7.010;2023-01-31T06:38:49;43.87;;;8.27;;
5273;SDS011;56254;50.956;7.010;2023-01-31T06:41:15;25.33;;;6.33;;
5273;SDS011;56254;50.956;7.010;2023-01-31T06:43:42;30.17;;;5.63;;
5273;SDS011;56254;50.956;7.010;2023-01-31T06:46:08;32.00;;;6.90;;
5273;SDS011;56254;50.956;7.010;2023-01-31T06:48:33;33.67;;;7.63;;
5273;SDS011;56254;50.956;7.010;2023-01-31T06:50:59;28.73;;;5.70;;
5273;SDS011;56254;50.956;7.010;2023-01-31T06:53:25;45.03;;;8.50;;
5273;SDS011;56254;50.956;7.010;2023-01-31T06:55:51;33.87;;;5.90;;
5273;SDS011;56254;50.956;7.010;2023-01-31T06:58:16;37.90;;;5.83;;
5273;SDS011;56254;50.956;7.010;2023-01-31T07:00:42;22.60;;;6.60;;
5273;SDS011;56254;50.956;7.010;2023-01-31T07:03:08;18.43;;;4.67;;
5273;SDS011;56254;50.956;7.010;2023-01-31T07:05:33;23.17;;;5.93;;
5273;SDS011;56254;50.956;7.010;2023-01-31T07:07:59;28.57;;;5.40;;
5273;SDS011;56254;50.956;7.010;2023-01-31T07:10:25;31.33;;;6.63;;
5273;SDS011;56254;50.956;7.010;2023-01-31T07:12:51;27.17;;;5.00;;
5273;SDS011;56254;50.956;7.010;2023-01-31T07:15:17;35.03;;;5.27;;
5273;SDS011;56254;50.956;7.010;2023-01-31T07:17:43;27.63;;;6.20;;
5273;SDS011;56254;50.956;7.010;2023-01-31T07:20:10;21.63;;;5.40;;
5273;SDS011;56254;50.956;7.010;2023-01-31T07:22:36;36.60;;;6.03;;
5273;SDS011;56254;50.956;7.010;2023-01-31T07:25:01;29.17;;;5.13;;
5273;SDS011;56254;50.956;7.010;2023-01-31T07:27:27;25.83;;;5.15;;
5273;SDS011;56254;50.956;7.010;2023-01-31T07:29:54;30.17;;;4.80;;
5273;SDS011;56254;50.956;7.010;2023-01-31T07:32:19;24.87;;;5.73;;
5273;SDS011;56254;50.956;7.010;2023-01-31T07:34:45;18.00;;;4.20;;
5273;SDS011;56254;50.956;7.010;2023-01-31T07:37:12;18.67;;;4.27;;
5273;SDS011;56254;50.956;7.010;2023-01-31T07:39:38;23.00;;;4.13;;
5273;SDS011;56254;50.956;7.010;2023-01-31T07:42:04;24.73;;;3.20;;
5273;SDS011;56254;50.956;7.010;2023-01-31T07:44:30;23.00;;;4.70;;
5273;SDS011;56254;50.956;7.010;2023-01-31T07:46:56;18.50;;;3.90;;
5273;SDS011;56254;50.956;7.010;2023-01-31T07:49:21;20.10;;;3.80;;
5273;SDS011;56254;50.956;7.010;2023-01-31T07:51:47;17.13;;;3.33;;
5273;SDS011;56254;50.956;7.010;2023-01-31T07:54:12;11.13;;;2.87;;
5273;SDS011;56254;50.956;7.010;2023-01-31T07:56:38;20.43;;;4.60;;
5273;SDS011;56254;50.956;7.010;2023-01-31T07:59:04;16.20;;;3.57;;
5273;SDS011;56254;50.956;7.010;2023-01-31T08:01:30;7.20;;;3.03;;
5273;SDS011;56254;50.956;7.010;2023-01-31T08:04:14;26.57;;;4.80;;
5273;SDS011;56254;50.956;7.010;2023-01-31T08:06:42;12.30;;;3.50;;
5273;SDS011;56254;50.956;7.010;2023-01-31T08:09:09;27.67;;;4.03;;
5273;SDS011;56254;50.956;7.010;2023-01-31T08:11:35;14.80;;;4.33;;
5273;SDS011;56254;50.956;7.010;2023-01-31T08:14:02;39.67;;;4.50;;
5273;SDS011;56254;50.956;7.010;2023-01-31T08:16:27;25.97;;;4.80;;
5273;SDS011;56254;50.956;7.010;2023-01-31T08:18:57;26.80;;;4.83;;
5273;SDS011;56254;50.956;7.010;2023-01-31T08:21:22;13.50;;;3.03;;
5273;SDS011;56254;50.956;7.010;2023-01-31T08:23:48;22.87;;;3.50;;
5273;SDS011;56254;50.956;7.010;2023-01-31T08:26:15;17.83;;;3.63;;
5273;SDS011;56254;50.956;7.010;2023-01-31T08:28:43;21.23;;;3.47;;
5273;SDS011;56254;50.956;7.010;2023-01-31T08:31:14;32.23;;;3.57;;
5273;SDS011;56254;50.956;7.010;2023-01-31T08:33:42;13.70;;;3.00;;
5273;SDS011;56254;50.956;7.010;2023-01-31T08:36:11;17.93;;;3.10;;
5273;SDS011;56254;50.956;7.010;2023-01-31T08:38:40;9.53;;;2.40;;
5273;SDS011;56254;50.956;7.010;2023-01-31T08:41:06;20.97;;;4.10;;
5273;SDS011;56254;50.956;7.010;2023-01-31T08:43:32;14.37;;;3.07;;
5273;SDS011;56254;50.956;7.010;2023-01-31T08:45:58;19.90;;;5.17;;
5273;SDS011;56254;50.956;7.010;2023-01-31T08:48:23;15.40;;;4.10;;
5273;SDS011;56254;50.956;7.010;2023-01-31T08:50:49;17.67;;;3.90;;
5273;SDS011;56254;50.956;7.010;2023-01-31T08:53:15;12.50;;;3.47;;
5273;SDS011;56254;50.956;7.010;2023-01-31T08:55:41;28.00;;;4.20;;
5273;SDS011;56254;50.956;7.010;2023-01-31T08:58:07;24.43;;;3.40;;
5273;SDS011;56254;50.956;7.010;2023-01-31T09:00:33;18.70;;;3.20;;
5273;SDS011;56254;50.956;7.010;2023-01-31T09:02:59;11.87;;;3.50;;
5273;SDS011;56254;50.956;7.010;2023-01-31T09:05:26;13.83;;;3.10;;
5273;SDS011;56254;50.956;7.010;2023-01-31T09:07:52;19.10;;;4.07;;
5273;SDS011;56254;50.956;7.010;2023-01-31T09:10:19;9.10;;;2.30;;
5273;SDS011;56254;50.956;7.010;2023-01-31T09:12:45;15.13;;;2.70;;
5273;SDS011;56254;50.956;7.010;2023-01-31T09:15:11;18.67;;;4.07;;
5273;SDS011;56254;50.956;7.010;2023-01-31T09:17:38;28.47;;;3.60;;
5273;SDS011;56254;50.956;7.010;2023-01-31T09:20:06;13.73;;;3.90;;
5273;SDS011;56254;50.956;7.010;2023-01-31T09:22:36;19.40;;;3.10;;
5273;SDS011;56254;50.956;7.010;2023-01-31T09:25:02;20.60;;;2.67;;
5273;SDS011;56254;50.956;7.010;2023-01-31T09:27:29;35.93;;;4.70;;
5273;SDS011;56254;50.956;7.010;2023-01-31T09:29:56;10.07;;;4.13;;
5273;SDS011;56254;50.956;7.010;2023-01-31T09:32:21;48.13;;;4.43;;
5273;SDS011;56254;50.956;7.010;2023-01-31T09:34:47;12.33;;;3.57;;
5273;SDS011;56254;50.956;7.010;2023-01-31T09:37:20;33.57;;;4.13;;
5273;SDS011;56254;50.956;7.010;2023-01-31T09:39:45;29.73;;;4.10;;
5273;SDS011;56254;50.956;7.010;2023-01-31T09:42:19;21.53;;;5.30;;
5273;SDS011;56254;50.956;7.010;2023-01-31T09:48:00;13.67;;;3.20;;
5273;SDS011;56254;50.956;7.010;2023-01-31T09:52:55;16.67;;;3.80;;
5273;SDS011;56254;50.956;7.010;2023-01-31T09:55:24;14.30;;;4.60;;
5273;SDS011;56254;50.956;7.010;2023-01-31T10:01:15;31.47;;;5.30;;
5273;SDS011;56254;50.956;7.010;2023-01-31T10:03:47;42.27;;;3.50;;
5273;SDS011;56254;50.956;7.010;2023-01-31T10:06:24;12.17;;;3.03;;
5273;SDS011;56254;50.956;7.010;2023-01-31T10:09:19;14.57;;;3.73;;
5273;SDS011;56254;50.956;7.010;2023-01-31T10:12:09;15.83;;;3.33;;
5273;SDS011;56254;50.956;7.010;2023-01-31T10:17:22;13.00;;;3.10;;
5273;SDS011;56254;50.956;7.010;2023-01-31T10:25:33;16.10;;;3.80;;
5273;SDS011;56254;50.956;7.010;2023-01-31T10:30:58;24.93;;;4.60;;
5273;SDS011;56254;50.956;7.010;2023-01-31T10:33:41;34.27;;;3.93;;
5273;SDS011;56254;50.956;7.010;2023-01-31T10:36:28;38.83;;;7.60;;
5273;SDS011;56254;50.956;7.010;2023-01-31T10:41:44;14.80;;;3.57;;
5273;SDS011;56254;50.956;7.010;2023-01-31T10:47:15;32.93;;;5.17;;
5273;SDS011;56254;50.956;7.010;2023-01-31T10:49:43;27.83;;;3.30;;
5273;SDS011;56254;50.956;7.010;2023-01-31T10:55:12;21.30;;;3.63;;
5273;SDS011;56254;50.956;7.010;2023-01-31T10:57:45;14.63;;;4.80;;
5273;SDS011;56254;50.956;7.010;2023-01-31T11:00:20;17.23;;;3.70;;
5273;SDS011;56254;50.956;7.010;2023-01-31T11:02:52;9.60;;;2.37;;
5273;SDS011;56254;50.956;7.010;2023-01-31T11:05:19;8.93;;;3.43;;
5273;SDS011;56254;50.956;7.010;2023-01-31T11:07:47;17.57;;;2.70;;
5273;SDS011;56254;50.956;7.010;2023-01-31T11:10:22;23.73;;;4.90;;
5273;SDS011;56254;50.956;7.010;2023-01-31T11:12:52;36.47;;;4.47;;
5273;SDS011;56254;50.956;7.010;2023-01-31T11:15:25;21.73;;;4.50;;
5273;SDS011;56254;50.956;7.010;2023-01-31T11:17:57;15.50;;;3.73;;
5273;SDS011;56254;50.956;7.010;2023-01-31T11:23:01;21.93;;;3.97;;
5273;SDS011;56254;50.956;7.010;2023-01-31T11:25:30;19.53;;;4.87;;
5273;SDS011;56254;50.956;7.010;2023-01-31T11:30:53;11.53;;;2.73;;
5273;SDS011;56254;50.956;7.010;2023-01-31T11:36:23;29.23;;;5.20;;
5273;SDS011;56254;50.956;7.010;2023-01-31T11:38:54;20.53;;;4.97;;
5273;SDS011;56254;50.956;7.010;2023-01-31T11:41:40;12.80;;;3.37;;
5273;SDS011;56254;50.956;7.010;2023-01-31T11:44:16;8.90;;;2.77;;
5273;SDS011;56254;50.956;7.010;2023-01-31T11:46:46;17.13;;;3.70;;
5273;SDS011;56254;50.956;7.010;2023-01-31T11:49:22;11.57;;;3.20;;
5273;SDS011;56254;50.956;7.010;2023-01-31T11:51:52;14.53;;;3.57;;
5273;SDS011;56254;50.956;7.010;2023-01-31T11:54:28;21.90;;;3.10;;
5273;SDS011;56254;50.956;7.010;2023-01-31T11:56:58;18.27;;;3.63;;
5273;SDS011;56254;50.956;7.010;2023-01-31T11:59:27;14.80;;;2.73;;
5273;SDS011;56254;50.956;7.010;2023-01-31T12:01:55;24.70;;;3.80;;
5273;SDS011;56254;50.956;7.010;2023-01-31T12:04:25;42.90;;;4.03;;
5273;SDS011;56254;50.956;7.010;2023-01-31T12:06:58;20.00;;;4.60;;
5273;SDS011;56254;50.956;7.010;2023-01-31T12:09:41;20.37;;;5.20;;
5273;SDS011;56254;50.956;7.010;2023-01-31T12:12:28;12.50;;;2.17;;
5273;SDS011;56254;50.956;7.010;2023-01-31T12:15:12;10.90;;;3.07;;
5273;SDS011;56254;50.956;7.010;2023-01-31T12:17:43;17.33;;;4.10;;
5273;SDS011;56254;50.956;7.010;2023-01-31T12:20:20;15.00;;;3.50;;
5273;SDS011;56254;50.956;7.010;2023-01-31T12:23:11;11.70;;;2.80;;
5273;SDS011;56254;50.956;7.010;2023-01-31T12:25:52;13.10;;;3.20;;
5273;SDS011;56254;50.956;7.010;2023-01-31T12:36:44;14.93;;;3.20;;
5273;SDS011;56254;50.956;7.010;2023-01-31T12:44:45;16.30;;;3.77;;
5273;SDS011;56254;50.956;7.010;2023-01-31T12:53:19;11.20;;;3.20;;
5273;SDS011;56254;50.956;7.010;2023-01-31T12:59:08;13.50;;;3.70;;
5273;SDS011;56254;50.956;7.010;2023-01-31T13:07:10;12.37;;;4.50;;
5273;SDS011;56254;50.956;7.010;2023-01-31T13:09:57;16.33;;;3.00;;
5273;SDS011;56254;50.956;7.010;2023-01-31T13:12:28;6.00;;;2.87;;
5273;SDS011;56254;50.956;7.010;2023-01-31T13:17:40;7.27;;;1.73;;
5273;SDS011;56254;50.956;7.010;2023-01-31T13:27:57;3.50;;;2.80;;
5273;SDS011;56254;50.956;7.010;2023-01-31T13:30:34;7.43;;;3.50;;
5273;SDS011;56254;50.956;7.010;2023-01-31T13:33:39;6.37;;;3.03;;
5273;SDS011;56254;50.956;7.010;2023-01-31T13:36:17;9.33;;;2.63;;
5273;SDS011;56254;50.956;7.010;2023-01-31T13:38:48;13.17;;;3.77;;
5273;SDS011;56254;50.956;7.010;2023-01-31T13:43:57;10.90;;;3.90;;
5273;SDS011;56254;50.956;7.010;2023-01-31T13:46:32;19.33;;;4.13;;
5273;SDS011;56254;50.956;7.010;2023-01-31T13:49:15;6.10;;;2.37;;
5273;SDS011;56254;50.956;7.010;2023-01-31T13:52:02;36.30;;;4.70;;
5273;SDS011;56254;50.956;7.010;2023-01-31T13:54:36;11.07;;;2.93;;
5273;SDS011;56254;50.956;7.010;2023-01-31T13:57:28;26.90;;;4.43;;
5273;SDS011;56254;50.956;7.010;2023-01-31T13:59:57;14.57;;;5.70;;
5273;SDS011;56254;50.956;7.010;2023-01-31T14:02:29;14.97;;;5.00;;
5273;SDS011;56254;50.956;7.010;2023-01-31T14:05:02;17.37;;;5.80;;
5273;SDS011;56254;50.956;7.010;2023-01-31T14:08:24;10.87;;;5.33;;
5273;SDS011;56254;50.956;7.010;2023-01-31T14:10:51;12.27;;;4.93;;
5273;SDS011;56254;50.956;7.010;2023-01-31T14:15:52;18.07;;;6.50;;
5273;SDS011;56254;50.956;7.010;2023-01-31T14:18:35;20.23;;;6.30;;
5273;SDS011;56254;50.956;7.010;2023-01-31T14:23:58;38.53;;;5.90;;
5273;SDS011;56254;50.956;7.010;2023-01-31T14:29:11;16.10;;;6.07;;
5273;SDS011;56254;50.956;7.010;2023-01-31T14:31:42;15.93;;;6.37;;
5273;SDS011;56254;50.956;7.010;2023-01-31T14:49:06;24.63;;;6.60;;
5273;SDS011;56254;50.956;7.010;2023-01-31T14:55:25;7.63;;;4.30;;
5273;SDS011;56254;50.956;7.010;2023-01-31T14:58:19;7.50;;;3.90;;
5273;SDS011;56254;50.956;7.010;2023-01-31T15:00:49;13.53;;;6.80;;
5273;SDS011;56254;50.956;7.010;2023-01-31T15:08:47;10.27;;;6.17;;
5273;SDS011;56254;50.956;7.010;2023-01-31T15:22:21;4.73;;;3.80;;
5273;SDS011;56254;50.956;7.010;2023-01-31T15:24:51;9.60;;;5.40;;
5273;SDS011;56254;50.956;7.010;2023-01-31T15:27:39;9.30;;;4.03;;
5273;SDS011;56254;50.956;7.010;2023-01-31T15:32:57;13.20;;;5.27;;
5273;SDS011;56254;50.956;7.010;2023-01-31T15:35:28;24.13;;;4.37;;
5273;SDS011;56254;50.956;7.010;2023-01-31T15:43:50;19.60;;;5.27;;
5273;SDS011;56254;50.956;7.010;2023-01-31T15:49:28;22.30;;;7.67;;
5273;SDS011;56254;50.956;7.010;2023-01-31T15:52:10;12.60;;;5.70;;
5273;SDS011;56254;50.956;7.010;2023-01-31T15:57:35;13.70;;;6.27;;
5273;SDS011;56254;50.956;7.010;2023-01-31T16:02:51;19.57;;;8.70;;
5273;SDS011;56254;50.956;7.010;2023-01-31T16:05:30;10.93;;;6.47;;
5273;SDS011;56254;50.956;7.010;2023-01-31T16:08:01;12.33;;;5.20;;
5273;SDS011;56254;50.956;7.010;2023-01-31T16:10:45;9.50;;;6.30;;
5273;SDS011;56254;50.956;7.010;2023-01-31T16:13:12;9.03;;;5.80;;
5273;SDS011;56254;50.956;7.010;2023-01-31T16:15:40;14.13;;;7.40;;
5273;SDS011;56254;50.956;7.010;2023-01-31T16:18:08;13.83;;;4.63;;
5273;SDS011;56254;50.956;7.010;2023-01-31T16:20:37;5.17;;;4.67;;
5273;SDS011;56254;50.956;7.010;2023-01-31T16:23:23;10.47;;;6.17;;
5273;SDS011;56254;50.956;7.010;2023-01-31T16:26:14;17.67;;;6.40;;
5273;SDS011;56254;50.956;7.010;2023-01-31T16:28:41;8.50;;;5.07;;
5273;SDS011;56254;50.956;7.010;2023-01-31T16:31:13;19.63;;;9.40;;
5273;SDS011;56254;50.956;7.010;2023-01-31T16:33:51;12.03;;;6.50;;
5273;SDS011;56254;50.956;7.010;2023-01-31T16:36:28;13.47;;;7.53;;
5273;SDS011;56254;50.956;7.010;2023-01-31T16:39:01;13.67;;;7.17;;
5273;SDS011;56254;50.956;7.010;2023-01-31T16:41:37;9.60;;;6.30;;
5273;SDS011;56254;50.956;7.010;2023-01-31T16:44:19;14.37;;;4.50;;
5273;SDS011;56254;50.956;7.010;2023-01-31T16:46:46;9.33;;;6.20;;
5273;SDS011;56254;50.956;7.010;2023-01-31T16:49:19;8.40;;;5.87;;
5273;SDS011;56254;50.956;7.010;2023-01-31T16:51:50;12.17;;;6.23;;
5273;SDS011;56254;50.956;7.010;2023-01-31T16:57:18;13.93;;;7.20;;
5273;SDS011;56254;50.956;7.010;2023-01-31T16:59:46;13.43;;;5.97;;
5273;SDS011;56254;50.956;7.010;2023-01-31T17:04:47;10.50;;;6.70;;
5273;SDS011;56254;50.956;7.010;2023-01-31T17:09:44;9.57;;;6.53;;
5273;SDS011;56254;50.956;7.010;2023-01-31T17:12:18;10.17;;;6.53;;
5273;SDS011;56254;50.956;7.010;2023-01-31T17:14:47;12.87;;;8.30;;
5273;SDS011;56254;50.956;7.010;2023-01-31T17:17:13;9.53;;;5.83;;
5273;SDS011;56254;50.956;7.010;2023-01-31T17:19:39;8.67;;;7.37;;
5273;SDS011;56254;50.956;7.010;2023-01-31T17:22:05;12.13;;;7.13;;
5273;SDS011;56254;50.956;7.010;2023-01-31T17:24:31;13.37;;;8.23;;
5273;SDS011;56254;50.956;7.010;2023-01-31T17:26:56;11.87;;;6.87;;
5273;SDS011;56254;50.956;7.010;2023-01-31T17:29:22;20.50;;;11.20;;
5273;SDS011;56254;50.956;7.010;2023-01-31T17:31:50;20.97;;;11.70;;
5273;SDS011;56254;50.956;7.010;2023-01-31T17:34:16;14.40;;;9.80;;
5273;SDS011;56254;50.956;7.010;2023-01-31T17:36:44;15.43;;;7.77;;
5273;SDS011;56254;50.956;7.010;2023-01-31T17:39:10;19.33;;;10.60;;
5273;SDS011;56254;50.956;7.010;2023-01-31T17:41:36;23.20;;;10.87;;
5273;SDS011;56254;50.956;7.010;2023-01-31T17:44:05;15.87;;;9.23;;
5273;SDS011;56254;50.956;7.010;2023-01-31T17:46:31;19.87;;;9.80;;
5273;SDS011;56254;50.956;7.010;2023-01-31T17:48:57;13.07;;;7.20;;
5273;SDS011;56254;50.956;7.010;2023-01-31T17:51:22;23.53;;;7.03;;
5273;SDS011;56254;50.956;7.010;2023-01-31T17:53:48;14.83;;;8.00;;
5273;SDS011;56254;50.956;7.010;2023-01-31T17:56:14;21.13;;;8.87;;
5273;SDS011;56254;50.956;7.010;2023-01-31T17:58:41;21.07;;;10.33;;
5273;SDS011;56254;50.956;7.010;2023-01-31T18:01:07;30.17;;;11.07;;
5273;SDS011;56254;50.956;7.010;2023-01-31T18:03:34;14.03;;;6.47;;
5273;SDS011;56254;50.956;7.010;2023-01-31T18:06:03;20.93;;;10.77;;
5273;SDS011;56254;50.956;7.010;2023-01-31T18:08:30;13.67;;;8.47;;
5273;SDS011;56254;50.956;7.010;2023-01-31T18:11:04;20.90;;;9.73;;
5273;SDS011;56254;50.956;7.010;2023-01-31T18:13:30;16.83;;;9.30;;
5273;SDS011;56254;50.956;7.010;2023-01-31T18:16:03;29.73;;;11.50;;
5273;SDS011;56254;50.956;7.010;2023-01-31T18:18:30;29.00;;;12.50;;
5273;SDS011;56254;50.956;7.010;2023-01-31T18:20:56;37.37;;;12.17;;
5273;SDS011;56254;50.956;7.010;2023-01-31T18:23:22;21.10;;;10.60;;
5273;SDS011;56254;50.956;7.010;2023-01-31T18:25:48;19.00;;;11.00;;
5273;SDS011;56254;50.956;7.010;2023-01-31T18:28:14;19.40;;;11.63;;
5273;SDS011;56254;50.956;7.010;2023-01-31T18:30:39;27.13;;;12.30;;
5273;SDS011;56254;50.956;7.010;2023-01-31T18:33:05;23.53;;;9.70;;
5273;SDS011;56254;50.956;7.010;2023-01-31T18:35:30;13.13;;;6.50;;
5273;SDS011;56254;50.956;7.010;2023-01-31T18:37:56;31.57;;;13.53;;
5273;SDS011;56254;50.956;7.010;2023-01-31T18:40:22;23.13;;;11.20;;
5273;SDS011;56254;50.956;7.010;2023-01-31T18:42:48;24.73;;;14.00;;
5273;SDS011;56254;50.956;7.010;2023-01-31T18:45:14;21.10;;;10.97;;
5273;SDS011;56254;50.956;7.010;2023-01-31T18:47:39;36.47;;;12.67;;
5273;SDS011;56254;50.956;7.010;2023-01-31T18:50:05;21.93;;;11.90;;